createdAt,value
2022-09-30T00:01:14.275Z,9.95
2022-09-30T00:03:42.147Z,11.05
2022-09-30T00:06:10.987Z,9.13
2022-09-30T00:08:40.505Z,8.90
2022-09-30T00:11:10.747Z,9.27
2022-09-30T00:13:40.091Z,9.63
2022-09-30T00:16:10.083Z,9.75
2022-09-30T00:18:38.712Z,9.80
2022-09-30T00:21:08.304Z,10.23
2022-09-30T00:23:36.581Z,9.23
2022-09-30T00:26:09.442Z,9.38
2022-09-30T00:28:37.271Z,9.45
2022-09-30T00:31:07.855Z,9.40
2022-09-30T00:33:36.200Z,8.95
2022-09-30T00:36:04.603Z,8.18
2022-09-30T00:38:33.199Z,8.52
2022-09-30T00:41:02.646Z,9.55
2022-09-30T00:43:43.357Z,10.18
2022-09-30T00:46:20.119Z,10.05
2022-09-30T00:48:53.696Z,10.25
2022-09-30T00:51:28.449Z,9.07
2022-09-30T00:54:01.068Z,10.43
2022-09-30T00:56:32.795Z,10.73
2022-09-30T00:59:06.685Z,9.82
2022-09-30T01:01:35.991Z,10.02
2022-09-30T01:04:07.320Z,11.00
2022-09-30T01:06:35.137Z,9.90
2022-09-30T01:09:03.277Z,9.05
2022-09-30T01:11:31.562Z,9.75
2022-09-30T01:14:03.675Z,10.15
2022-09-30T01:16:57.061Z,9.90
2022-09-30T01:19:50.849Z,10.20
2022-09-30T01:22:27.991Z,10.35
2022-09-30T01:25:24.482Z,10.85
2022-09-30T01:28:24.055Z,11.45
2022-09-30T01:31:17.932Z,9.75
2022-09-30T01:33:52.955Z,10.50
2022-09-30T01:36:39.452Z,10.60
2022-09-30T01:39:31.386Z,10.93
2022-09-30T01:42:23.551Z,10.80
2022-09-30T01:45:18.779Z,10.07
2022-09-30T01:50:53.388Z,10.18
2022-09-30T01:53:26.009Z,10.90
2022-09-30T01:55:59.736Z,10.27
2022-09-30T01:58:34.102Z,9.73
2022-09-30T02:01:07.215Z,10.10
2022-09-30T02:03:39.773Z,10.70
2022-09-30T02:06:11.065Z,9.73
2022-09-30T02:08:42.348Z,10.90
2022-09-30T02:11:14.407Z,9.60
2022-09-30T02:13:46.636Z,10.57
2022-09-30T02:16:21.641Z,10.30
2022-09-30T02:18:55.342Z,10.85
2022-09-30T02:21:27.385Z,11.57
2022-09-30T02:24:00.941Z,11.95
2022-09-30T02:26:32.642Z,12.00
2022-09-30T02:29:05.002Z,12.70
2022-09-30T02:34:07.474Z,12.35
2022-09-30T02:36:40.148Z,12.35
2022-09-30T02:39:11.506Z,10.60
2022-09-30T02:41:45.292Z,10.73
2022-09-30T02:44:13.706Z,10.18
2022-09-30T02:46:47.726Z,12.02
2022-09-30T02:49:24.141Z,11.02
2022-09-30T02:52:12.532Z,11.73
2022-09-30T02:54:49.912Z,10.45
2022-09-30T02:57:23.411Z,11.55
2022-09-30T02:59:53.601Z,11.40
2022-09-30T03:02:22.385Z,11.05
2022-09-30T03:04:52.015Z,9.98
2022-09-30T03:07:20.172Z,11.05
2022-09-30T03:09:48.039Z,10.27
2022-09-30T03:12:27.473Z,10.85
2022-09-30T03:15:12.680Z,10.93
2022-09-30T03:17:56.272Z,10.60
2022-09-30T03:20:38.611Z,11.05
2022-09-30T03:23:36.231Z,10.52
2022-09-30T03:26:15.657Z,10.70
2022-09-30T03:28:52.972Z,10.38
2022-09-30T03:31:28.089Z,11.70
2022-09-30T03:34:03.866Z,11.10
2022-09-30T03:36:39.551Z,10.07
2022-09-30T03:39:17.780Z,11.02
2022-09-30T03:41:49.515Z,10.73
2022-09-30T03:44:23.164Z,6.65
2022-09-30T03:46:55.342Z,9.07
2022-09-30T03:49:25.409Z,9.65
2022-09-30T03:51:58.685Z,10.27
2022-09-30T03:54:27.129Z,10.27
2022-09-30T03:56:54.959Z,11.35
2022-09-30T03:59:27.892Z,10.23
2022-09-30T04:01:57.006Z,10.90
2022-09-30T04:04:24.842Z,10.50
2022-09-30T04:06:54.016Z,9.32
2022-09-30T04:09:21.925Z,10.75
2022-09-30T04:11:49.966Z,11.00
2022-09-30T04:14:17.769Z,11.90
2022-09-30T04:16:45.590Z,12.20
2022-09-30T04:19:13.398Z,12.20
2022-09-30T04:21:41.219Z,12.18
2022-09-30T04:24:10.730Z,11.50
2022-09-30T04:26:38.545Z,11.05
2022-09-30T04:29:06.434Z,11.15
2022-09-30T04:31:34.278Z,10.27
2022-09-30T04:34:02.354Z,10.93
2022-09-30T04:36:30.216Z,11.60
2022-09-30T04:38:58.548Z,10.82
2022-09-30T04:41:27.714Z,10.60
2022-09-30T04:43:55.814Z,10.75
2022-09-30T04:46:23.808Z,10.95
2022-09-30T04:48:51.756Z,11.88
2022-09-30T04:51:21.238Z,11.90
2022-09-30T04:53:49.816Z,11.70
2022-09-30T04:56:18.309Z,12.00
2022-09-30T04:58:47.472Z,11.70
2022-09-30T05:01:16.797Z,11.23
2022-09-30T05:03:45.512Z,11.98
2022-09-30T05:06:14.173Z,12.43
2022-09-30T05:08:46.059Z,12.68
2022-09-30T05:11:18.466Z,12.15
2022-09-30T05:13:48.594Z,11.55
2022-09-30T05:16:17.703Z,11.15
2022-09-30T05:18:46.958Z,11.82
2022-09-30T05:21:16.088Z,13.10
2022-09-30T05:23:44.085Z,14.80
2022-09-30T05:26:12.762Z,24.15
2022-09-30T05:28:40.828Z,21.15
2022-09-30T05:31:10.224Z,17.85
2022-09-30T05:33:38.083Z,16.83
2022-09-30T05:36:07.749Z,14.40
2022-09-30T05:38:36.145Z,13.90
2022-09-30T05:41:08.610Z,14.00
2022-09-30T05:43:38.134Z,13.35
2022-09-30T05:46:06.311Z,12.93
2022-09-30T05:48:35.688Z,12.30
2022-09-30T05:51:03.893Z,10.68
2022-09-30T05:53:32.897Z,10.13
2022-09-30T05:56:00.750Z,11.25
2022-09-30T05:58:28.624Z,10.73
2022-09-30T06:00:57.258Z,10.20
2022-09-30T06:03:27.113Z,10.63
2022-09-30T06:05:58.274Z,11.38
2022-09-30T06:08:26.508Z,11.75
2022-09-30T06:10:54.693Z,14.93
2022-09-30T06:13:22.528Z,15.00
2022-09-30T06:15:57.509Z,15.38
2022-09-30T06:18:26.043Z,15.55
2022-09-30T06:20:54.682Z,13.93
2022-09-30T06:23:23.887Z,14.25
2022-09-30T06:25:51.857Z,13.43
2022-09-30T06:28:20.042Z,12.35
2022-09-30T06:30:48.230Z,11.45
2022-09-30T06:33:17.384Z,10.80
2022-09-30T06:35:47.358Z,10.65
2022-09-30T06:38:16.595Z,10.35
2022-09-30T06:40:49.527Z,9.82
2022-09-30T06:43:17.417Z,9.98
2022-09-30T06:45:47.266Z,8.70
2022-09-30T06:48:20.269Z,9.43
2022-09-30T06:51:01.510Z,8.95
2022-09-30T06:53:30.188Z,9.90
2022-09-30T06:55:59.594Z,8.90
2022-09-30T06:58:27.457Z,9.13
2022-09-30T07:00:58.768Z,8.77
2022-09-30T07:03:29.272Z,9.68
2022-09-30T07:05:58.551Z,8.50
2022-09-30T07:08:29.168Z,8.65
2022-09-30T07:10:57.417Z,9.48
2022-09-30T07:13:27.480Z,8.27
2022-09-30T07:15:56.639Z,9.27
2022-09-30T07:18:27.998Z,9.00
2022-09-30T07:20:57.422Z,8.20
2022-09-30T07:23:27.397Z,8.88
2022-09-30T07:25:57.754Z,7.80
2022-09-30T07:28:31.234Z,8.20
2022-09-30T07:31:27.484Z,8.30
2022-09-30T07:33:51.191Z,8.10
2022-09-30T07:36:20.221Z,8.23
2022-09-30T07:38:49.858Z,8.10
2022-09-30T07:41:21.840Z,7.85
2022-09-30T07:43:51.142Z,7.78
2022-09-30T07:46:25.017Z,8.00
2022-09-30T07:48:57.358Z,8.25
2022-09-30T07:53:57.697Z,8.52
2022-09-30T07:56:26.534Z,8.85
2022-09-30T07:58:57.746Z,7.60
2022-09-30T08:01:25.710Z,8.02
2022-09-30T08:03:55.409Z,6.70
2022-09-30T08:06:23.861Z,7.38
2022-09-30T08:08:53.463Z,7.28
2022-09-30T08:11:21.595Z,6.82
2022-09-30T08:13:52.406Z,7.63
2022-09-30T08:16:22.746Z,6.75
2022-09-30T08:18:54.698Z,6.18
2022-09-30T08:21:22.998Z,5.85
2022-09-30T08:23:50.848Z,6.10
2022-09-30T08:26:18.841Z,5.97
2022-09-30T08:28:48.255Z,5.70
2022-09-30T08:31:18.414Z,5.32
2022-09-30T08:33:47.910Z,4.95
2022-09-30T08:36:17.220Z,3.70
2022-09-30T08:38:45.725Z,4.40
2022-09-30T08:41:24.202Z,3.97
2022-09-30T08:44:05.831Z,3.40
2022-09-30T08:46:42.735Z,3.90
2022-09-30T08:49:30.245Z,4.43
2022-09-30T08:52:00.614Z,3.67
2022-09-30T08:54:37.804Z,3.75
2022-09-30T08:57:08.912Z,3.80
2022-09-30T08:59:39.133Z,3.83
2022-09-30T09:02:18.206Z,3.75
2022-09-30T09:04:49.102Z,3.15
2022-09-30T09:07:30.681Z,2.58
2022-09-30T09:10:11.435Z,2.13
2022-09-30T09:12:47.938Z,2.25
2022-09-30T09:15:26.570Z,2.38
2022-09-30T09:18:23.266Z,2.40
2022-09-30T09:20:56.486Z,2.40
2022-09-30T09:23:24.961Z,2.15
2022-09-30T09:25:55.651Z,1.90
2022-09-30T09:28:33.789Z,1.70
2022-09-30T09:31:02.515Z,2.00
2022-09-30T09:33:32.389Z,2.17
2022-09-30T09:36:13.243Z,2.30
2022-09-30T09:38:57.895Z,2.40
2022-09-30T09:41:34.378Z,2.10
2022-09-30T09:44:06.678Z,2.00
2022-09-30T09:49:32.909Z,2.05
2022-09-30T09:52:40.010Z,2.13
2022-09-30T09:55:11.245Z,1.70
2022-09-30T09:57:40.181Z,2.05
2022-09-30T10:00:27.709Z,3.80
2022-09-30T10:03:03.985Z,3.13
2022-09-30T10:05:39.376Z,2.80
2022-09-30T10:08:13.120Z,2.67
2022-09-30T10:10:49.346Z,2.78
2022-09-30T10:13:22.457Z,3.08
2022-09-30T10:15:52.517Z,2.88
2022-09-30T10:18:25.817Z,2.70
2022-09-30T10:20:57.445Z,2.88
2022-09-30T10:23:29.508Z,4.10
2022-09-30T10:26:01.812Z,3.35
2022-09-30T10:31:14.312Z,4.00
2022-09-30T10:45:01.893Z,4.32
2022-09-30T10:47:36.596Z,3.50
2022-09-30T10:50:09.326Z,3.15
2022-09-30T10:52:40.466Z,3.80
2022-09-30T10:55:15.716Z,3.65
2022-09-30T10:57:45.812Z,3.50
2022-09-30T11:00:19.534Z,3.13
2022-09-30T11:02:58.982Z,3.20
2022-09-30T11:05:30.444Z,3.70
2022-09-30T11:08:04.138Z,2.10
2022-09-30T11:10:39.970Z,3.53
2022-09-30T11:13:14.603Z,3.25
2022-09-30T11:15:49.976Z,3.10
2022-09-30T11:18:26.793Z,3.15
2022-09-30T11:20:58.523Z,2.78
2022-09-30T11:23:31.892Z,3.33
2022-09-30T11:26:06.135Z,3.13
2022-09-30T11:28:47.761Z,2.88
2022-09-30T11:31:29.302Z,2.90
2022-09-30T11:34:15.813Z,2.70
2022-09-30T11:36:54.011Z,2.90
2022-09-30T11:39:49.375Z,2.45
2022-09-30T11:42:22.384Z,3.03
2022-09-30T11:45:01.204Z,3.03
2022-09-30T11:48:00.703Z,2.65
2022-09-30T11:50:49.036Z,2.70
2022-09-30T11:53:28.150Z,2.72
2022-09-30T11:56:16.911Z,2.63
2022-09-30T11:58:48.810Z,2.70
2022-09-30T12:01:22.443Z,2.90
2022-09-30T12:04:02.020Z,2.53
2022-09-30T12:06:35.564Z,2.40
2022-09-30T12:09:15.948Z,2.47
2022-09-30T12:11:51.634Z,2.72
2022-09-30T12:14:27.315Z,2.50
2022-09-30T12:16:57.723Z,2.30
2022-09-30T12:19:30.941Z,2.30
2022-09-30T12:22:06.466Z,2.00
2022-09-30T12:24:38.288Z,2.05
2022-09-30T12:27:13.817Z,2.10
2022-09-30T12:30:02.821Z,2.00
2022-09-30T12:32:58.427Z,1.83
2022-09-30T12:35:39.630Z,1.67
2022-09-30T12:38:27.046Z,1.67
2022-09-30T12:41:11.915Z,1.65
2022-09-30T12:44:17.634Z,1.50
2022-09-30T12:47:08.688Z,1.70
2022-09-30T12:49:40.348Z,1.20
2022-09-30T12:52:15.167Z,1.08
2022-09-30T12:54:50.839Z,1.10
2022-09-30T12:57:24.276Z,1.10
2022-09-30T12:59:55.665Z,1.13
2022-09-30T13:02:32.573Z,1.30
2022-09-30T13:05:46.898Z,1.20
2022-09-30T13:08:32.681Z,1.50
2022-09-30T13:11:07.873Z,1.50
2022-09-30T13:13:57.242Z,1.52
2022-09-30T13:16:58.373Z,1.65
2022-09-30T13:19:38.371Z,1.50
2022-09-30T13:22:55.154Z,1.30
2022-09-30T13:25:23.098Z,1.50
2022-09-30T13:35:50.609Z,1.63
2022-09-30T13:38:53.743Z,1.70
2022-09-30T13:41:24.739Z,2.10
2022-09-30T13:44:03.557Z,2.25
2022-09-30T13:46:36.727Z,1.67
2022-09-30T13:49:10.786Z,1.52
2022-09-30T13:51:41.693Z,1.67
2022-09-30T13:54:24.282Z,1.58
2022-09-30T13:56:54.155Z,1.30
2022-09-30T13:59:39.498Z,1.70
2022-09-30T14:02:39.589Z,1.30
2022-09-30T14:05:43.441Z,1.45
2022-09-30T14:08:41.526Z,1.10
2022-09-30T14:11:28.511Z,1.27
2022-09-30T14:14:14.517Z,1.08
2022-09-30T14:17:05.751Z,1.27
2022-09-30T14:20:02.820Z,1.20
2022-09-30T14:22:31.372Z,0.90
2022-09-30T14:24:59.523Z,0.98
2022-09-30T14:27:50.457Z,0.90
2022-09-30T14:30:21.322Z,1.00
2022-09-30T14:32:54.572Z,0.90
2022-09-30T14:35:25.130Z,1.30
2022-09-30T14:37:57.428Z,1.00
2022-09-30T14:42:55.465Z,0.88
2022-09-30T14:45:27.274Z,1.10
2022-09-30T14:48:00.401Z,1.23
2022-09-30T14:50:32.109Z,1.10
2022-09-30T14:53:02.793Z,1.08
2022-09-30T14:55:33.470Z,1.27
2022-09-30T14:58:28.319Z,1.30
2022-09-30T15:01:06.489Z,1.30
2022-09-30T15:03:39.430Z,1.42
2022-09-30T15:06:19.375Z,1.33
2022-09-30T15:08:48.438Z,1.42
2022-09-30T15:11:21.230Z,1.70
2022-09-30T15:13:50.116Z,1.38
2022-09-30T15:16:26.832Z,1.50
2022-09-30T15:18:56.448Z,1.80
2022-09-30T15:21:27.908Z,1.65
2022-09-30T15:23:57.806Z,2.20
2022-09-30T15:26:27.586Z,1.60
2022-09-30T15:28:55.735Z,2.13
2022-09-30T15:31:27.477Z,1.80
2022-09-30T15:34:05.005Z,1.30
2022-09-30T15:36:34.141Z,1.42
2022-09-30T15:39:02.811Z,1.42
2022-09-30T15:41:30.815Z,1.58
2022-09-30T15:44:00.435Z,1.50
2022-09-30T15:46:31.777Z,1.58
2022-09-30T15:49:01.646Z,1.70
2022-09-30T15:51:40.011Z,2.70
2022-09-30T15:54:32.162Z,2.95
2022-09-30T15:57:16.362Z,2.20
2022-09-30T16:00:02.078Z,1.40
2022-09-30T16:02:31.499Z,1.45
2022-09-30T16:05:02.014Z,1.33
2022-09-30T16:07:32.926Z,1.73
2022-09-30T16:10:00.910Z,1.25
2022-09-30T16:12:33.598Z,1.20
2022-09-30T16:15:08.037Z,1.10
2022-09-30T16:17:38.593Z,1.00
2022-09-30T16:20:09.242Z,1.10
2022-09-30T16:22:51.604Z,1.05
2022-09-30T16:25:26.405Z,0.90
2022-09-30T16:27:57.592Z,1.13
2022-09-30T16:30:25.998Z,1.00
2022-09-30T16:32:58.097Z,0.90
2022-09-30T16:35:27.979Z,1.52
2022-09-30T16:38:01.820Z,1.30
2022-09-30T16:40:32.026Z,1.50
2022-09-30T16:43:01.313Z,1.75
2022-09-30T16:45:31.275Z,1.83
2022-09-30T16:48:01.462Z,1.58
2022-09-30T16:50:36.689Z,1.50
2022-09-30T16:53:05.894Z,1.90
2022-09-30T16:55:33.809Z,1.88
2022-09-30T16:58:01.681Z,2.17
2022-09-30T17:00:30.105Z,1.70
2022-09-30T17:02:58.453Z,2.10
2022-09-30T17:05:27.809Z,1.67
2022-09-30T17:07:57.128Z,1.58
2022-09-30T17:10:29.061Z,1.67
2022-09-30T17:12:57.962Z,1.85
2022-09-30T17:15:25.887Z,1.90
2022-09-30T17:17:53.929Z,1.85
2022-09-30T17:20:22.179Z,1.65
2022-09-30T17:22:50.477Z,1.80
2022-09-30T17:25:19.020Z,1.40
2022-09-30T17:27:50.340Z,1.70
2022-09-30T17:30:19.177Z,1.88
2022-09-30T17:32:47.082Z,2.00
2022-09-30T17:35:15.256Z,1.83
2022-09-30T17:37:46.278Z,1.60
2022-09-30T17:40:32.600Z,2.00
2022-09-30T17:43:13.967Z,2.00
2022-09-30T17:45:43.992Z,1.95
2022-09-30T17:48:13.465Z,1.70
2022-09-30T17:50:44.190Z,1.88
2022-09-30T17:53:14.102Z,1.73
2022-09-30T17:55:43.529Z,1.90
2022-09-30T17:58:12.674Z,2.40
2022-09-30T18:00:40.494Z,2.25
2022-09-30T18:03:08.768Z,2.30
2022-09-30T18:05:37.349Z,2.40
2022-09-30T18:08:06.123Z,2.83
2022-09-30T18:10:36.558Z,2.80
2022-09-30T18:13:04.378Z,2.30
2022-09-30T18:15:33.935Z,2.50
2022-09-30T18:18:01.748Z,2.35
2022-09-30T18:20:29.564Z,2.33
2022-09-30T18:22:57.363Z,2.35
2022-09-30T18:25:25.338Z,2.50
2022-09-30T18:27:57.403Z,2.67
2022-09-30T18:30:26.849Z,2.53
2022-09-30T18:32:57.041Z,2.47
2022-09-30T18:35:25.551Z,2.63
2022-09-30T18:37:54.015Z,2.45
2022-09-30T18:40:24.614Z,2.67
2022-09-30T18:42:55.492Z,3.28
2022-09-30T18:45:23.618Z,2.90
2022-09-30T18:47:57.093Z,2.85
2022-09-30T18:50:26.569Z,2.97
2022-09-30T18:52:54.653Z,2.97
2022-09-30T18:55:22.922Z,3.47
2022-09-30T18:57:54.055Z,3.20
2022-09-30T19:00:21.905Z,3.45
2022-09-30T19:02:49.746Z,4.15
2022-09-30T19:05:19.227Z,3.50
2022-09-30T19:07:47.025Z,3.33
2022-09-30T19:10:15.651Z,3.88
2022-09-30T19:12:44.482Z,3.50
2022-09-30T19:15:15.966Z,4.00
2022-09-30T19:17:44.381Z,3.97
2022-09-30T19:20:13.954Z,3.65
2022-09-30T19:22:43.181Z,4.03
2022-09-30T19:25:12.638Z,4.95
2022-09-30T19:27:42.237Z,4.00
2022-09-30T19:30:12.225Z,4.10
2022-09-30T19:32:40.389Z,4.15
2022-09-30T19:35:44.218Z,4.43
2022-09-30T19:38:13.976Z,4.63
2022-09-30T19:40:42.157Z,4.50
2022-09-30T19:43:10.037Z,4.28
2022-09-30T19:45:37.922Z,4.80
2022-09-30T19:48:05.777Z,4.32
2022-09-30T19:50:36.734Z,4.45
2022-09-30T19:53:04.561Z,4.35
2022-09-30T19:55:46.811Z,4.43
2022-09-30T19:58:17.188Z,4.30
2022-09-30T20:00:47.023Z,4.75
2022-09-30T20:03:15.231Z,5.22
2022-09-30T20:05:43.875Z,5.30
2022-09-30T20:08:11.683Z,5.32
2022-09-30T20:10:40.829Z,4.63
2022-09-30T20:13:08.630Z,4.97
2022-09-30T20:15:53.132Z,4.80
2022-09-30T20:18:21.586Z,5.05
2022-09-30T20:21:25.487Z,5.10
2022-09-30T20:23:54.651Z,5.13
2022-09-30T20:26:23.836Z,4.72
2022-09-30T20:28:56.244Z,4.80
2022-09-30T20:31:24.689Z,4.78
2022-09-30T20:33:55.420Z,4.80
2022-09-30T20:36:23.311Z,4.90
2022-09-30T20:38:51.596Z,5.35
2022-09-30T20:41:19.507Z,4.90
2022-09-30T20:43:52.903Z,4.82
2022-09-30T20:46:21.658Z,5.25
2022-09-30T20:48:50.295Z,4.75
2022-09-30T20:51:19.414Z,5.30
2022-09-30T20:53:51.736Z,6.20
2022-09-30T20:58:47.738Z,6.20
2022-09-30T21:01:19.324Z,6.10
2022-09-30T21:03:50.384Z,6.43
2022-09-30T21:06:20.469Z,7.95
2022-09-30T21:08:50.774Z,7.28
2022-09-30T21:11:19.501Z,7.82
2022-09-30T21:13:48.944Z,6.93
2022-09-30T21:16:19.717Z,6.78
2022-09-30T21:18:48.276Z,7.03
2022-09-30T21:21:41.743Z,6.30
2022-09-30T21:24:09.744Z,6.55
2022-09-30T21:29:53.358Z,5.78
2022-09-30T21:32:28.875Z,5.75
2022-09-30T21:34:57.926Z,6.43
2022-09-30T21:37:26.002Z,5.80
2022-09-30T21:39:53.872Z,5.68
2022-09-30T21:42:22.365Z,5.70
2022-09-30T21:44:50.245Z,5.82
2022-09-30T21:47:18.434Z,6.40
2022-09-30T21:49:47.581Z,6.20
2022-09-30T21:52:15.441Z,6.07
2022-09-30T21:54:43.256Z,6.95
2022-09-30T21:57:11.134Z,7.68
2022-09-30T21:59:46.353Z,7.57
2022-09-30T22:02:16.473Z,6.85
2022-09-30T22:04:44.508Z,7.22
2022-09-30T22:07:15.377Z,6.50
2022-09-30T22:09:43.463Z,6.85
2022-09-30T22:12:11.328Z,6.25
2022-09-30T22:14:39.210Z,6.00
2022-09-30T22:17:09.131Z,6.55
2022-09-30T22:19:38.457Z,6.72
2022-09-30T22:22:06.410Z,6.07
2022-09-30T22:24:36.834Z,5.95
2022-09-30T22:27:06.142Z,5.85
2022-09-30T22:29:34.167Z,5.88
2022-09-30T22:32:02.834Z,5.63
2022-09-30T22:34:48.323Z,5.80
2022-09-30T22:37:33.901Z,5.55
2022-09-30T22:40:03.282Z,5.55
2022-09-30T22:42:31.493Z,6.05
2022-09-30T22:44:59.365Z,5.90
2022-09-30T22:47:27.273Z,6.20
2022-09-30T22:49:55.115Z,6.55
2022-09-30T22:52:22.945Z,5.80
2022-09-30T22:54:50.732Z,5.90
2022-09-30T22:57:19.890Z,6.50
2022-09-30T22:59:47.693Z,11.98
2022-09-30T23:02:15.986Z,12.48
2022-09-30T23:04:44.351Z,13.07
2022-09-30T23:07:12.250Z,12.98
2022-09-30T23:09:40.072Z,12.50
2022-09-30T23:12:07.944Z,11.52
2022-09-30T23:14:38.482Z,11.77
2022-09-30T23:17:06.293Z,11.75
2022-09-30T23:19:34.097Z,9.82
2022-09-30T23:22:01.881Z,9.48
2022-09-30T23:24:30.302Z,9.98
2022-09-30T23:26:58.282Z,8.23
2022-09-30T23:29:26.102Z,8.02
2022-09-30T23:32:23.153Z,9.07
2022-09-30T23:34:50.972Z,9.10
2022-09-30T23:37:19.180Z,8.98
2022-09-30T23:39:47.045Z,7.63
2022-09-30T23:42:14.870Z,7.00
2022-09-30T23:44:42.730Z,7.32
2022-09-30T23:47:19.320Z,7.35
2022-09-30T23:49:48.726Z,6.85
2022-09-30T23:52:17.408Z,6.55
2022-09-30T23:54:45.325Z,6.47
2022-09-30T23:57:13.229Z,7.35
2022-09-30T23:59:41.074Z,6.30
